Have a Safe July 4th! 

Flight Track Log - Related Links

Times and Time Zones

All times are in EDT time to prevent confusion due to time zone crossing. See the UAL4696 flight status page for this flight to view local times or setup timezone preferences in your user account.

Time Position Orientation Groundspeed Altitude Reporting Facility
EDT Latitude Longitude Course Direction KTS MPH feet Rate Location/Type
Wed 06:15:50 AM 42.2314 -83.3342 34° Northeast 156 180 1,300  Level Cleveland Center
Wed 06:16:26 AM 42.2547 -83.3128 34° Northeast 173 199 2,700 2,239 Climbing Cleveland Center
Wed 06:16:57 AM 42.2761 -83.2942 33° Northeast 195 224 3,800 2,291 Climbing Cleveland Center
Wed 06:17:21 AM 42.2933 -83.2722 43° Northeast 202 232 4,800 1,600 Climbing Cleveland Center
Wed 06:17:57 AM 42.2986 -83.2164 83° East 243 280 5,400 1,778 Climbing Cleveland Center
Wed 06:18:15 AM 42.2992 -83.1939 88° East 247 284 6,400 2,700 Climbing Cleveland Center
Wed 06:18:57 AM 42.2922 -83.1319 99° East 250 288 8,100 2,262 Climbing Cleveland Center
Wed 06:19:16 AM 42.2908 -83.1011 93° East 259 298 8,700 2,100 Climbing Cleveland Center
Wed 06:19:57 AM 42.2819 -83.0306 100° East 273 314 10,200 1,485 Climbing Cleveland Center
Wed 06:20:57 AM 42.2717 -82.9206 97° East 293 337 11,200 1,250 Climbing Cleveland Center
Wed 06:21:57 AM 42.2597 -82.7967 97° East 311 358 12,700 1,600 Climbing Cleveland Center
Wed 06:22:57 AM 42.2453 -82.6728 99° East 323 372 14,400 1,400 Climbing Cleveland Center
Wed 06:23:57 AM 42.2331 -82.5433 97° East 335 386 15,500 1,050 Climbing Cleveland Center
Wed 06:24:57 AM 42.2206 -82.4083 97° East 345 397 16,500 1,150 Climbing Cleveland Center
Wed 06:25:57 AM 42.2103 -82.2708 96° East 357 411 17,800 1,000 Climbing Cleveland Center
Wed 06:26:57 AM 42.2033 -82.1583 95° East 363 418 18,500 950 Climbing Cleveland Center
Wed 06:27:57 AM 42.1908 -81.9983 96° East 381 438 19,700 1,150 Climbing Cleveland Center
Wed 06:28:57 AM 42.1822 -81.8553 95° East 388 447 20,800 1,100 Climbing Cleveland Center
Wed 06:29:57 AM 42.1711 -81.7067 96° East 396 456 21,900 1,150 Climbing Cleveland Center
Wed 06:30:57 AM 42.1622 -81.5581 95° East 396 456 23,100 1,250 Climbing Cleveland Center
Wed 06:31:57 AM 42.1489 -81.3981 96° East 391 450 24,400 1,300 Climbing Cleveland Center
Wed 06:32:57 AM 42.1353 -81.2553 97° East 385 443 25,700 1,300 Climbing Cleveland Center
Wed 06:33:57 AM 42.1256 -81.1122 95° East 385 443 27,000 1,250 Climbing Cleveland Center
Wed 06:34:57 AM 42.0842 -80.9889 114° Southeast 364 419 28,200 1,000 Climbing Cleveland Center
Wed 06:35:57 AM 42.0117 -80.8850 133° Southeast 364 419 29,000 400 Climbing Cleveland Center
Wed 06:36:57 AM 41.9369 -80.7786 133° Southeast 382 440 29,000  Level Cleveland Center
Wed 06:37:57 AM 41.8578 -80.6667 133° Southeast 408 470 29,000  Level Cleveland Center
Wed 06:38:57 AM 41.7994 -80.5553 125° Southeast 408 470 29,000  Level Cleveland Center
Wed 06:39:57 AM 41.7828 -80.4050 98° East 399 459 29,000  Level Cleveland Center
Wed 06:40:57 AM 41.7678 -80.2658 98° East 394 453 29,000  Level Cleveland Center
Wed 06:41:57 AM 41.7547 -80.1267 97° East 379 436 29,000  Level Cleveland Center
Wed 06:42:57 AM 41.7397 -79.9906 98° East 374 430 29,000  Level Cleveland Center
Wed 06:43:57 AM 41.7242 -79.8403 98° East 369 425 29,000  Level Cleveland Center
Wed 06:44:57 AM 41.7106 -79.7042 98° East 369 425 29,000  Level Cleveland Center
Wed 06:45:57 AM 41.6969 -79.5708 98° East 369 425 29,000  Level Cleveland Center
Wed 06:46:57 AM 41.6811 -79.4350 99° East 369 425 29,000  Level Cleveland Center
Wed 06:47:57 AM 41.6672 -79.2906 97° East 369 425 29,000  Level Cleveland Center
Wed 06:48:57 AM 41.6508 -79.1464 99° East 382 440 29,000  Level Cleveland Center
Wed 06:49:57 AM 41.6344 -79.0022 99° East 387 445 29,000  Level Cleveland Center
Wed 06:50:57 AM 41.6178 -78.8556 99° East 387 445 29,000  Level Cleveland Center
Wed 06:51:57 AM 41.6008 -78.7117 99° East 387 445 29,000  Level Cleveland Center
Wed 06:52:57 AM 41.5836 -78.5650 99° East 387 445 29,000  Level Cleveland Center
Wed 06:53:57 AM 41.5664 -78.4183 99° East 387 445 29,000  Level Cleveland Center
Wed 06:54:57 AM 41.5492 -78.2747 99° East 387 445 29,000  Level Cleveland Center
Wed 06:55:30 AM 41.5428 -78.2050 97° East 385 443 29,000  Level New York Center
Wed 06:56:30 AM 41.5247 -78.0617 100° East 385 443 29,000  Level New York Center
Wed 06:57:28 AM 41.5044 -77.9153 100° East 390 449 29,000  Level New York Center
Wed 06:58:29 AM 41.4856 -77.7747 100° East 390 449 29,000  Level New York Center
Wed 06:59:29 AM 41.4647 -77.6342 101° East 390 449 29,000  Level New York Center
Wed 07:00:31 AM 41.4436 -77.4908 101° East 395 455 29,000  Level New York Center
Wed 07:01:29 AM 41.4222 -77.3531 102° East 390 449 29,000  Level New York Center
Wed 07:02:31 AM 41.4011 -77.2072 101° East 390 449 29,000  Level New York Center
Wed 07:03:31 AM 41.3811 -77.0725 101° East 385 443 29,000  Level New York Center
Wed 07:04:28 AM 41.3597 -76.9294 101° East 385 443 29,000 -305 Level New York Center
Wed 07:05:29 AM 41.3397 -76.7894 101° East 385 443 28,400 -1,289 Descending New York Center
Wed 07:06:29 AM 41.3064 -76.6622 109° East 375 432 26,400 -1,918 Descending New York Center
Wed 07:07:31 AM 41.2692 -76.5292 110° East 375 432 24,500 -1,966 Descending New York Center
Wed 07:08:28 AM 41.2339 -76.3964 109° East 375 432 22,500 -2,085 Descending New York Center
Wed 07:09:29 AM 41.1983 -76.2694 110° East 375 432 20,400 -2,083 Descending New York Center
Wed 07:10:29 AM 41.1686 -76.1428 107° East 370 426 18,300 -1,934 Descending New York Center
Wed 07:11:30 AM 41.1383 -76.0303 110° East 365 420 16,500 -1,785 Descending New York Center
Wed 07:12:30 AM 41.1042 -75.9092 110° East 350 403 14,700 -1,613 Descending New York Center
Wed 07:13:29 AM 41.0678 -75.7797 110° East 344 396 13,300 -843 Descending New York Center
Wed 07:14:31 AM 41.0356 -75.6564 109° East 344 396 13,000 -148 Descending New York Center
Wed 07:15:31 AM 41.0008 -75.5358 111° Southeast 344 396 13,000  Level New York Center
Wed 07:16:30 AM 40.9700 -75.4236 110° East 330 380 13,000 -650 Level New York Center
Wed 07:17:31 AM 40.9406 -75.3256 112° Southeast 299 344 11,700 -1,462 Descending New York Center
Wed 07:18:29 AM 40.9150 -75.2278 109° East 283 326 10,100 -1,590 Descending New York Center
Wed 07:19:28 AM 40.8908 -75.1464 111° Southeast 272 313 8,600 -1,400 Descending New York Center
Wed 07:20:29 AM 40.8669 -75.0597 110° East 255 293 7,300 -793 Descending New York Center
Wed 07:21:29 AM 40.8411 -74.9731 111° Southeast 239 275 7,000 -149 Descending New York Center
Wed 07:22:30 AM 40.8253 -74.8872 104° East 239 275 7,000  Level New York Center
Wed 07:23:30 AM 40.8181 -74.7908 96° East 239 275 7,000  Level New York Center
Wed 07:24:30 AM 40.7981 -74.7047 107° East 239 275 7,000 -250 Level New York Center
Wed 07:25:30 AM 40.7822 -74.6189 104° East 244 281 6,500 -607 Descending New York Center
Wed 07:25:59 AM 40.7667 -74.5833 120° Southeast 245 282 6,100 -434 Descending New York TRACON
Wed 07:26:53 AM 40.7167 -74.5500 153° Southeast 229 264 5,900 -368 Descending New York TRACON
Wed 07:27:53 AM 40.6500 -74.5000 150° Southeast 238 274 5,400 -474 Descending New York TRACON
Wed 07:28:47 AM 40.6000 -74.4500 143° Southeast 229 264 5,000 -737 Descending New York TRACON
Wed 07:29:47 AM 40.5500 -74.4000 143° Southeast 217 250 4,000 -522 Descending New York TRACON
Wed 07:30:42 AM 40.5167 -74.3833 159° South 181 208 4,000 -417 Level New York TRACON
Wed 07:31:42 AM 40.5000 -74.3167 108° East 186 214 3,200 -900 Descending New York TRACON
Wed 07:32:42 AM 40.5333 -74.2667 49° Northeast 185 213 2,200 -600 Descending New York TRACON
Wed 07:33:42 AM 40.5833 -74.2333 27° Northeast 176 203 2,000 -200 Descending New York TRACON

Login

Don't have an account? Register now (free) for customized features, flight alerts, and more!